Time;durP1;ratioP1;P1;durP2;ratioP2;P2;SDS_P1;SDS_P2;PMS_P1;PMS_P2;Temp;Humidity;BMP_temperature;BMP_pressure;BME280_temperature;BME280_humidity;BME280_pressure;Samples;Min_cycle;Max_cycle;Signal;HPM_P1;HPM_P2
2023/10/28 00:00:13;;;;;;;4.00;0.80;;;25.00;85.10;;;;;;4991758;28;20174;-72
2023/10/28 00:02:41;;;;;;;4.77;1.20;;;25.70;83.10;;;;;;4991002;28;20214;-69
2023/10/28 00:05:08;;;;;;;2.33;0.83;;;25.60;75.70;;;;;;4991450;28;20194;-70
2023/10/28 00:07:36;;;;;;;6.03;1.40;;;24.80;70.00;;;;;;4991681;28;20179;-73
2023/10/28 00:10:07;;;;;;;5.13;0.87;;;24.30;72.10;;;;;;4990759;28;20186;-72
2023/10/28 00:12:51;;;;;;;3.80;0.87;;;23.50;80.20;;;;;;4989199;28;20309;-72
2023/10/28 00:15:21;;;;;;;4.00;1.00;;;22.90;74.10;;;;;;4988847;28;20695;-70
2023/10/28 00:17:48;;;;;;;2.67;0.90;;;22.60;83.80;;;;;;4988918;28;20194;-72
2023/10/28 00:20:21;;;;;;;4.73;1.40;;;22.10;82.50;;;;;;4989278;28;20187;-72
2023/10/28 00:22:53;;;;;;;2.00;0.90;;;22.30;85.00;;;;;;4989613;28;20695;-73
2023/10/28 00:25:31;;;;;;;5.27;1.17;;;22.40;85.70;;;;;;4988643;28;20230;-71
2023/10/28 00:27:59;;;;;;;3.83;0.90;;;22.00;88.80;;;;;;4969028;28;20277;-68
2023/10/28 00:30:27;;;;;;;4.80;1.17;;;21.70;86.60;;;;;;4975380;28;20662;-71
2023/10/28 00:33:03;;;;;;;6.70;1.47;;;21.50;90.20;;;;;;4989011;28;20279;-71
2023/10/28 00:35:30;;;;;;;6.70;1.03;;;21.30;91.60;;;;;;4993075;28;20186;-71
2023/10/28 00:37:58;;;;;;;5.13;1.20;;;21.20;94.50;;;;;;4993294;28;20195;-72
2023/10/28 00:40:30;;;;;;;2.60;0.90;;;21.10;92.10;;;;;;4993716;28;20295;-71
2023/10/28 00:42:59;;;;;;;4.40;1.03;;;20.90;93.70;;;;;;4993440;28;20234;-74
2023/10/28 00:45:29;;;;;;;2.67;1.00;;;20.80;94.20;;;;;;4993012;28;20713;-72
2023/10/28 00:53:54;;;;;;;3.33;1.37;;;20.80;95.20;;;;;;4986107;28;20309;-73
2023/10/28 00:56:22;;;;;;;3.63;1.30;;;21.00;97.30;;;;;;4984885;28;20183;-71
2023/10/28 00:58:51;;;;;;;3.47;0.97;;;21.20;98.40;;;;;;4995550;28;20655;-68
2023/10/28 01:01:19;;;;;;;4.50;1.10;;;21.40;96.60;;;;;;4994879;28;20233;-71
2023/10/28 01:03:47;;;;;;;2.20;1.07;;;21.60;95.10;;;;;;5010037;28;20278;-69
2023/10/28 01:06:15;;;;;;;5.83;0.93;;;21.80;93.60;;;;;;4995403;28;20261;-69
2023/10/28 01:08:42;;;;;;;4.13;1.00;;;21.90;93.50;;;;;;4994913;28;20672;-71
2023/10/28 01:11:10;;;;;;;3.33;1.03;;;22.40;90.30;;;;;;4994961;28;20205;-71
2023/10/28 01:13:37;;;;;;;5.53;1.00;;;22.80;90.20;;;;;;4994929;28;20202;-72
2023/10/28 01:16:08;;;;;;;4.27;1.10;;;22.70;90.90;;;;;;4994715;28;20654;-73
2023/10/28 01:18:35;;;;;;;2.90;0.93;;;22.90;82.70;;;;;;4995005;28;20185;-72
2023/10/28 01:21:12;;;;;;;5.40;1.47;;;22.60;82.90;;;;;;4994175;28;20273;-71
2023/10/28 01:23:40;;;;;;;2.83;1.17;;;22.80;88.30;;;;;;4994396;28;20223;-72
2023/10/28 01:26:08;;;;;;;2.97;1.10;;;22.90;93.60;;;;;;4995480;28;20244;-71
2023/10/28 01:28:36;;;;;;;7.83;1.30;;;23.60;87.60;;;;;;4994571;28;20193;-71
2023/10/28 01:31:04;;;;;;;8.33;1.00;;;23.50;87.40;;;;;;4993891;28;20186;-71
2023/10/28 01:33:31;;;;;;;2.63;0.90;;;23.70;73.20;;;;;;4994608;28;20190;-72
2023/10/28 01:35:58;;;;;;;3.60;0.90;;;23.50;84.20;;;;;;4995016;28;20185;-73
2023/10/28 01:38:26;;;;;;;2.80;1.17;;;23.40;75.40;;;;;;4994096;28;20210;-72
2023/10/28 01:40:56;;;;;;;3.73;0.90;;;23.30;81.00;;;;;;4994216;28;20865;-72
2023/10/28 01:43:23;;;;;;;1.73;0.90;;;22.80;83.30;;;;;;5002060;28;20249;-74
2023/10/28 01:45:50;;;;;;;4.40;1.40;;;22.80;79.90;;;;;;5013036;28;20254;-74
2023/10/28 01:48:18;;;;;;;5.60;0.77;;;22.80;78.90;;;;;;4999617;28;20228;-71
2023/10/28 01:50:45;;;;;;;3.13;1.00;;;22.80;76.90;;;;;;4994280;28;20186;-73
2023/10/28 01:53:13;;;;;;;2.57;0.90;;;22.90;79.80;;;;;;4993872;28;20263;-72
2023/10/28 01:55:40;;;;;;;4.57;1.23;;;22.90;80.50;;;;;;4994526;28;20175;-72
2023/10/28 01:58:08;;;;;;;3.60;1.00;;;23.20;74.20;;;;;;4994480;28;20178;-71
2023/10/28 02:00:35;;;;;;;3.60;1.27;;;23.30;69.50;;;;;;5008080;28;20192;-72
2023/10/28 02:03:02;;;;;;;4.03;1.47;;;24.00;72.60;;;;;;5014681;28;20217;-72
2023/10/28 02:05:30;;;;;;;2.53;1.00;;;24.60;77.50;;;;;;5013820;28;20223;-72
2023/10/28 02:07:57;;;;;;;3.30;1.07;;;24.20;74.30;;;;;;5015482;28;20185;-72
2023/10/28 02:10:24;;;;;;;4.77;0.90;;;23.70;77.50;;;;;;5014786;28;20651;-72
2023/10/28 02:12:56;;;;;;;2.90;1.00;;;23.40;77.90;;;;;;5015004;28;20586;-73
2023/10/28 02:16:07;;;;;;;4.40;0.93;;;23.00;83.40;;;;;;5014658;28;20195;-73
2023/10/28 02:18:34;;;;;;;4.00;0.80;;;22.60;82.70;;;;;;5014269;28;20184;-73
2023/10/28 02:21:01;;;;;;;1.57;1.10;;;22.20;86.50;;;;;;5014413;28;20236;-73
2023/10/28 02:23:28;;;;;;;4.47;1.00;;;22.60;90.60;;;;;;5014757;28;20212;-73
2023/10/28 02:25:56;;;;;;;2.23;0.80;;;22.90;88.00;;;;;;5014607;28;20178;-73
2023/10/28 02:28:23;;;;;;;2.60;1.00;;;22.60;85.40;;;;;;5014664;28;20195;-73
2023/10/28 02:30:50;;;;;;;6.63;1.23;;;22.40;90.20;;;;;;5014409;28;20180;-72
2023/10/28 02:33:18;;;;;;;6.20;1.30;;;22.30;90.40;;;;;;5014664;28;20620;-73
2023/10/28 02:35:47;;;;;;;3.90;1.37;;;22.10;93.20;;;;;;5009722;28;20658;-72
2023/10/28 02:38:15;;;;;;;3.93;1.00;;;22.10;94.50;;;;;;4994695;28;20169;-74
2023/10/28 02:40:51;;;;;;;5.97;1.00;;;22.20;90.00;;;;;;4994881;28;20203;-72
2023/10/28 02:43:18;;;;;;;3.63;1.00;;;22.00;92.50;;;;;;4971172;28;20888;-73
2023/10/28 02:45:46;;;;;;;4.47;1.20;;;21.80;95.80;;;;;;4987124;28;20669;-72
2023/10/28 02:48:13;;;;;;;4.63;1.20;;;22.00;93.90;;;;;;4993434;28;20182;-72
2023/10/28 02:50:43;;;;;;;9.67;1.20;;;21.90;92.20;;;;;;4992459;28;20229;-72
2023/10/28 02:53:11;;;;;;;3.63;1.03;;;22.20;93.20;;;;;;4992508;28;20238;-72
2023/10/28 02:55:39;;;;;;;4.80;1.13;;;22.30;92.00;;;;;;4993844;28;20191;-74
2023/10/28 02:58:06;;;;;;;3.17;0.97;;;22.50;93.40;;;;;;4992458;28;20642;-73
2023/10/28 03:00:33;;;;;;;2.57;1.10;;;22.60;90.80;;;;;;4993351;28;20187;-71
2023/10/28 03:03:02;;;;;;;1.93;0.93;;;22.70;85.50;;;;;;4993040;28;20213;-73
2023/10/28 03:05:29;;;;;;;8.53;1.43;;;22.80;92.60;;;;;;4993305;28;20181;-73
2023/10/28 03:07:56;;;;;;;7.37;1.43;;;23.00;92.50;;;;;;4992688;28;20573;-72
2023/10/28 03:10:24;;;;;;;3.53;0.80;;;23.50;87.90;;;;;;4992931;28;20178;-72
2023/10/28 03:12:51;;;;;;;4.70;1.20;;;24.10;83.70;;;;;;4992930;28;20644;-72
2023/10/28 03:15:18;;;;;;;3.40;1.47;;;24.10;74.60;;;;;;4992107;28;20192;-72
2023/10/28 03:17:46;;;;;;;8.03;1.33;;;24.10;78.40;;;;;;4992841;28;20222;-71
2023/10/28 03:20:19;;;;;;;4.67;1.10;;;24.00;74.00;;;;;;4993031;28;20183;-72
2023/10/28 03:22:46;;;;;;;6.53;1.43;;;23.50;74.90;;;;;;4992594;28;20214;-71
2023/10/28 03:25:14;;;;;;;3.90;1.00;;;23.30;77.60;;;;;;4992937;28;20206;-72
2023/10/28 03:34:28;;;;;;;4.57;1.10;;;23.40;80.70;;;;;;5003098;28;20220;-69
2023/10/28 03:36:56;;;;;;;5.27;1.03;;;22.50;83.70;;;;;;4992169;28;20186;-72
2023/10/28 03:39:24;;;;;;;4.03;1.20;;;21.90;90.00;;;;;;4992533;28;20245;-73
2023/10/28 03:41:53;;;;;;;4.80;1.30;;;21.70;91.70;;;;;;4992688;28;20210;-72
2023/10/28 03:44:21;;;;;;;6.23;1.40;;;21.50;94.00;;;;;;4991710;28;20301;-71
2023/10/28 03:46:49;;;;;;;4.37;1.33;;;21.70;97.10;;;;;;4992083;28;20190;-69
2023/10/28 03:49:16;;;;;;;2.80;0.90;;;22.30;94.30;;;;;;4991242;28;20194;-72
2023/10/28 03:51:44;;;;;;;4.37;1.20;;;22.50;92.60;;;;;;4992053;28;20211;-71
2023/10/28 03:54:13;;;;;;;3.00;1.13;;;23.40;95.30;;;;;;4992256;28;20300;-71
2023/10/28 03:56:40;;;;;;;5.17;1.33;;;23.70;92.90;;;;;;4992025;28;20190;-72
2023/10/28 03:59:08;;;;;;;4.50;1.27;;;24.00;91.50;;;;;;4991945;28;20647;-73
2023/10/28 04:01:35;;;;;;;4.33;1.10;;;24.00;90.30;;;;;;4963543;28;20191;-72
2023/10/28 04:04:02;;;;;;;6.53;1.20;;;24.10;87.00;;;;;;4985560;28;20188;-73
2023/10/28 04:06:30;;;;;;;5.53;1.77;;;24.10;80.10;;;;;;5007296;28;20620;-72
2023/10/28 04:15:42;;;;;;;5.03;1.40;;;23.30;87.90;;;;;;4976019;28;20268;-72
2023/10/28 04:18:09;;;;;;;2.20;0.80;;;23.80;79.50;;;;;;4995164;28;20201;-71
2023/10/28 04:20:37;;;;;;;3.67;1.10;;;24.20;90.00;;;;;;4995877;28;20580;-72
2023/10/28 04:23:05;;;;;;;2.90;1.40;;;24.40;82.70;;;;;;4995693;28;20686;-73
2023/10/28 04:25:33;;;;;;;8.80;1.53;;;24.30;72.40;;;;;;4996190;28;20191;-72
2023/10/28 04:28:00;;;;;;;4.47;0.87;;;24.60;71.60;;;;;;4995829;28;20584;-72
2023/10/28 04:37:12;;;;;;;10.73;1.10;;;23.60;77.50;;;;;;4994977;28;20186;-74
2023/10/28 04:39:40;;;;;;;2.97;1.03;;;22.80;80.90;;;;;;4994496;28;20190;-73
2023/10/28 04:42:09;;;;;;;4.53;1.20;;;22.70;93.50;;;;;;4995814;28;20213;-73
2023/10/28 04:44:37;;;;;;;5.60;1.57;;;22.10;97.40;;;;;;4995689;28;20216;-72
2023/10/28 04:47:04;;;;;;;4.97;1.10;;;21.80;99.90;;;;;;4995551;28;20190;-73
2023/10/28 04:49:32;;;;;;;6.23;1.40;;;22.30;99.90;;;;;;4995669;28;20221;-70
2023/10/28 04:51:59;;;;;;;3.53;1.27;;;22.70;98.90;;;;;;4995326;28;20249;-73
2023/10/28 04:54:26;;;;;;;5.30;1.10;;;22.30;99.60;;;;;;4994407;28;20234;-73
2023/10/28 04:56:54;;;;;;;5.77;1.90;;;21.90;99.90;;;;;;4995586;28;20175;-72
2023/10/28 04:59:21;;;;;;;6.53;1.57;;;21.60;99.90;;;;;;4994779;28;20186;-71
2023/10/28 05:01:50;;;;;;;4.47;1.30;;;21.40;99.90;;;;;;4995262;28;20315;-72
2023/10/28 05:04:18;;;;;;;2.90;1.20;;;21.10;99.90;;;;;;4995300;28;20190;-73
2023/10/28 05:06:45;;;;;;;4.50;1.40;;;21.40;99.90;;;;;;4995057;28;20197;-71
2023/10/28 05:09:15;;;;;;;5.07;1.30;;;21.80;99.90;;;;;;4993896;28;20661;-71
2023/10/28 05:11:42;;;;;;;4.43;1.30;;;22.10;99.90;;;;;;4995107;28;20178;-72
2023/10/28 05:14:11;;;;;;;2.27;0.90;;;22.30;99.90;;;;;;4993110;28;20229;-73
2023/10/28 05:16:38;;;;;;;3.13;1.00;;;22.70;99.90;;;;;;4995251;28;20224;-72
2023/10/28 05:19:08;;;;;;;5.73;1.30;;;22.60;99.90;;;;;;4995084;28;20250;-73
2023/10/28 05:21:37;;;;;;;3.63;1.30;;;22.50;99.90;;;;;;4993559;28;20182;-75
2023/10/28 05:24:05;;;;;;;6.27;1.30;;;22.70;99.90;;;;;;4995006;28;20195;-68
2023/10/28 05:26:32;;;;;;;4.37;0.90;;;22.80;99.90;;;;;;4995067;28;20178;-69
2023/10/28 05:29:00;;;;;;;3.13;1.03;;;22.60;99.90;;;;;;4994264;28;20222;-72
2023/10/28 05:31:28;;;;;;;7.40;1.13;;;22.40;99.90;;;;;;4994474;28;20604;-69
2023/10/28 05:33:55;;;;;;;5.57;1.27;;;22.20;99.90;;;;;;4994896;28;20321;-70
2023/10/28 05:36:23;;;;;;;1.63;0.83;;;22.30;99.90;;;;;;4992909;28;20525;-73
2023/10/28 05:38:53;;;;;;;5.47;1.23;;;22.30;99.90;;;;;;4994452;28;20187;-72
2023/10/28 05:41:21;;;;;;;4.57;1.20;;;22.30;99.90;;;;;;4994474;28;20196;-69
2023/10/28 05:43:48;;;;;;;3.70;1.20;;;22.30;99.90;;;;;;4994269;28;20225;-71
2023/10/28 05:46:17;;;;;;;3.60;1.20;;;22.30;99.90;;;;;;4994807;28;20604;-73
2023/10/28 05:48:45;;;;;;;4.60;1.10;;;22.30;99.90;;;;;;4980150;28;20222;-73
2023/10/28 05:51:12;;;;;;;2.70;0.97;;;22.10;99.90;;;;;;4994247;28;20192;-71
2023/10/28 05:53:40;;;;;;;2.37;1.40;;;22.00;99.90;;;;;;4994712;28;20206;-70
2023/10/28 05:56:07;;;;;;;2.60;1.07;;;21.90;99.90;;;;;;4994356;28;20603;-69
2023/10/28 05:58:36;;;;;;;6.10;1.10;;;22.00;99.90;;;;;;4993765;28;20566;-69
2023/10/28 06:01:04;;;;;;;3.67;1.03;;;22.10;99.90;;;;;;4994515;28;20203;-73
2023/10/28 06:03:31;;;;;;;4.17;1.13;;;22.00;99.90;;;;;;4994366;28;20222;-69
2023/10/28 06:05:58;;;;;;;5.97;1.07;;;22.20;99.90;;;;;;4993822;28;20178;-70
2023/10/28 06:08:26;;;;;;;3.47;0.90;;;22.10;99.90;;;;;;4993786;28;20189;-71
2023/10/28 06:10:56;;;;;;;4.00;1.23;;;22.00;99.90;;;;;;4994250;28;20631;-72
2023/10/28 06:13:24;;;;;;;4.83;1.27;;;21.80;99.90;;;;;;4993589;28;20621;-73
2023/10/28 06:15:52;;;;;;;4.07;1.00;;;21.50;99.90;;;;;;4993900;28;20241;-70
2023/10/28 06:18:19;;;;;;;1.83;0.97;;;21.70;99.90;;;;;;4993949;28;20225;-72
2023/10/28 06:20:47;;;;;;;2.27;1.00;;;21.70;99.90;;;;;;4993842;28;20766;-72
2023/10/28 06:23:15;;;;;;;4.83;1.07;;;21.40;99.90;;;;;;4994077;28;20226;-73
2023/10/28 06:25:42;;;;;;;3.37;0.80;;;21.60;99.90;;;;;;4994178;28;20230;-71
2023/10/28 06:28:10;;;;;;;2.23;0.93;;;21.60;99.90;;;;;;4991566;28;20186;-72
2023/10/28 06:30:49;;;;;;;5.60;0.87;;;21.30;99.90;;;;;;4993586;28;20190;-74
2023/10/28 06:33:17;;;;;;;5.33;0.70;;;21.30;99.90;;;;;;4993588;28;20186;-72
2023/10/28 06:35:46;;;;;;;4.37;1.10;;;21.20;99.90;;;;;;4993164;28;20192;-72
2023/10/28 06:38:13;;;;;;;4.93;1.23;;;21.10;99.90;;;;;;4994160;28;20182;-73
2023/10/28 06:40:41;;;;;;;5.10;0.97;;;21.00;99.90;;;;;;4993117;28;20579;-73
2023/10/28 06:43:08;;;;;;;4.80;1.33;;;21.10;99.90;;;;;;4994594;28;20224;-73
2023/10/28 06:45:35;;;;;;;4.30;0.83;;;21.10;99.90;;;;;;4994809;28;20182;-70
2023/10/28 06:48:03;;;;;;;1.70;0.90;;;21.00;99.90;;;;;;4993615;28;20776;-75
2023/10/28 06:50:30;;;;;;;3.77;1.07;;;20.70;99.90;;;;;;4994737;28;20286;-73
2023/10/28 06:52:59;;;;;;;5.47;0.87;;;20.50;99.90;;;;;;4994571;28;20184;-74
2023/10/28 06:55:30;;;;;;;5.20;0.87;;;20.10;99.90;;;;;;4994668;28;20190;-73
2023/10/28 06:58:00;;;;;;;4.67;1.07;;;20.10;99.90;;;;;;4994561;28;20543;-74
2023/10/28 07:00:28;;;;;;;3.60;0.80;;;20.00;99.90;;;;;;4994146;28;20191;-70
2023/10/28 07:02:56;;;;;;;3.20;1.00;;;19.80;99.90;;;;;;4994563;28;20359;-70
2023/10/28 07:05:27;;;;;;;4.43;0.97;;;19.50;99.90;;;;;;4993661;28;20587;-72
2023/10/28 07:07:54;;;;;;;4.57;1.30;;;19.50;99.90;;;;;;5009573;28;20201;-71
2023/10/28 07:10:23;;;;;;;2.67;0.83;;;19.50;99.90;;;;;;5011446;28;20178;-70
2023/10/28 07:12:50;;;;;;;3.17;0.90;;;19.40;99.90;;;;;;4994283;28;20546;-68
2023/10/28 07:15:18;;;;;;;3.97;1.07;;;19.30;99.90;;;;;;4961812;28;20230;-74
2023/10/28 07:17:46;;;;;;;2.83;1.13;;;19.30;99.90;;;;;;4992751;28;20179;-70
2023/10/28 07:20:13;;;;;;;3.77;0.90;;;19.30;99.90;;;;;;4991495;28;20202;-72
2023/10/28 07:22:41;;;;;;;4.27;0.90;;;19.30;99.90;;;;;;4992007;28;20688;-73
2023/10/28 07:25:09;;;;;;;5.03;0.90;;;19.30;99.90;;;;;;4991986;28;20206;-71
2023/10/28 07:27:37;;;;;;;4.30;0.90;;;19.50;99.90;;;;;;4992008;28;20753;-70
2023/10/28 07:30:05;;;;;;;3.43;1.30;;;19.70;99.90;;;;;;4990666;28;20190;-72
2023/10/28 07:32:32;;;;;;;2.93;1.00;;;19.80;99.90;;;;;;4992870;28;20179;-70
2023/10/28 07:35:00;;;;;;;4.07;1.30;;;20.00;99.90;;;;;;4992433;28;20559;-72
2023/10/28 07:37:27;;;;;;;1.83;0.80;;;20.00;99.90;;;;;;4990989;28;20214;-72
2023/10/28 07:39:54;;;;;;;4.47;1.40;;;19.90;99.90;;;;;;4992782;28;20240;-72
2023/10/28 07:42:23;;;;;;;2.90;1.23;;;19.70;99.90;;;;;;4992638;28;20218;-72
2023/10/28 07:44:53;;;;;;;1.87;0.83;;;19.40;99.90;;;;;;4991253;28;20273;-70
2023/10/28 07:47:20;;;;;;;4.03;1.03;;;19.30;99.90;;;;;;4992676;28;20274;-72
2023/10/28 07:49:48;;;;;;;5.13;1.00;;;19.10;99.90;;;;;;4992731;28;20639;-72
2023/10/28 07:52:15;;;;;;;3.23;1.00;;;19.00;99.90;;;;;;4992050;28;20189;-73
2023/10/28 07:54:43;;;;;;;2.23;0.80;;;18.80;99.90;;;;;;4992373;28;20180;-71
2023/10/28 07:57:10;;;;;;;1.10;0.80;;;18.70;99.90;;;;;;4992500;28;20209;-70
2023/10/28 07:59:38;;;;;;;2.47;0.93;;;18.50;99.90;;;;;;4986072;28;20206;-71
2023/10/28 08:05:29;;;;;;;4.50;1.13;;;18.40;99.90;;;;;;4992445;28;20186;-69
2023/10/28 08:07:56;;;;;;;5.57;1.17;;;18.30;99.90;;;;;;5006602;28;20186;-71
2023/10/28 08:10:23;;;;;;;5.50;1.07;;;18.20;99.90;;;;;;5013353;28;20720;-72
2023/10/28 08:12:56;;;;;;;4.77;1.20;;;18.20;99.90;;;;;;5011485;28;20174;-72
2023/10/28 08:15:25;;;;;;;2.50;1.30;;;18.00;99.90;;;;;;4992119;28;20581;-71
2023/10/28 08:17:52;;;;;;;5.80;1.50;;;17.90;99.90;;;;;;4993594;28;20182;-69
2023/10/28 08:20:19;;;;;;;3.03;1.20;;;17.80;99.90;;;;;;4993486;28;20657;-69
2023/10/28 08:22:47;;;;;;;2.87;1.00;;;17.80;99.90;;;;;;4993204;28;20222;-69
2023/10/28 08:25:17;;;;;;;4.30;0.97;;;17.80;99.90;;;;;;4992759;28;20185;-70
2023/10/28 08:27:47;;;;;;;1.87;1.00;;;17.80;99.90;;;;;;4993592;28;20218;-69
2023/10/28 08:30:17;;;;;;;1.57;1.00;;;17.70;99.90;;;;;;4993570;28;20303;-69
2023/10/28 08:32:45;;;;;;;7.23;1.23;;;17.60;99.90;;;;;;4993495;28;20205;-68
2023/10/28 08:35:12;;;;;;;4.60;0.93;;;17.50;99.90;;;;;;4993031;28;20245;-69
2023/10/28 08:37:40;;;;;;;3.67;1.00;;;17.50;99.90;;;;;;4993125;28;20241;-70
2023/10/28 08:40:12;;;;;;;6.87;1.17;;;17.50;99.90;;;;;;4993675;28;20254;-70
2023/10/28 08:42:40;;;;;;;3.53;0.90;;;17.40;99.90;;;;;;4993418;28;20633;-71
2023/10/28 08:45:08;;;;;;;5.63;1.17;;;17.40;99.90;;;;;;4993473;28;20205;-69
2023/10/28 08:47:41;;;;;;;3.27;1.00;;;17.40;99.90;;;;;;4993295;28;20182;-69
2023/10/28 08:50:09;;;;;;;6.50;0.93;;;17.20;99.90;;;;;;4993372;28;20205;-69
2023/10/28 08:52:48;;;;;;;4.63;1.27;;;17.20;99.90;;;;;;4993308;28;20178;-69
2023/10/28 08:55:42;;;;;;;3.43;1.17;;;17.10;99.90;;;;;;4994509;28;20214;-68
2023/10/28 08:58:09;;;;;;;5.90;1.10;;;17.10;99.90;;;;;;4996902;28;20178;-70
2023/10/28 09:00:38;;;;;;;3.97;0.80;;;17.10;99.90;;;;;;4996920;28;20707;-68
2023/10/28 09:03:06;;;;;;;7.23;1.30;;;17.10;99.90;;;;;;4996557;28;20534;-71
2023/10/28 09:05:33;;;;;;;3.30;0.90;;;17.00;99.90;;;;;;4995905;28;20184;-68
2023/10/28 09:08:01;;;;;;;6.37;0.90;;;17.00;99.90;;;;;;4996873;28;20266;-70
2023/10/28 09:10:28;;;;;;;2.27;1.00;;;17.00;99.90;;;;;;4996650;28;20182;-70
2023/10/28 09:12:55;;;;;;;4.67;0.90;;;17.00;99.90;;;;;;4996846;28;20179;-70
2023/10/28 09:15:23;;;;;;;2.53;0.80;;;17.00;99.90;;;;;;4996206;28;20331;-70
2023/10/28 09:17:50;;;;;;;3.43;0.90;;;16.90;99.90;;;;;;4996936;28;20174;-70
2023/10/28 09:20:18;;;;;;;3.83;0.90;;;16.80;99.90;;;;;;4996792;28;20174;-73
2023/10/28 09:22:45;;;;;;;4.53;1.10;;;16.70;99.90;;;;;;4996540;28;20210;-69
2023/10/28 09:25:16;;;;;;;5.20;1.10;;;16.80;99.90;;;;;;4996636;28;20182;-73
2023/10/28 09:27:45;;;;;;;3.73;1.13;;;16.90;99.90;;;;;;4996665;28;20210;-72
2023/10/28 09:30:15;;;;;;;2.63;1.30;;;16.70;99.90;;;;;;4996844;28;20537;-72
2023/10/28 09:32:43;;;;;;;2.53;0.90;;;16.70;99.90;;;;;;4995585;28;20182;-72
2023/10/28 09:35:11;;;;;;;3.17;0.90;;;16.70;99.90;;;;;;4996334;28;20205;-71
2023/10/28 09:37:39;;;;;;;3.33;0.90;;;16.60;99.90;;;;;;4996461;28;20171;-72
2023/10/28 09:40:12;;;;;;;1.93;0.90;;;16.50;99.90;;;;;;4996489;28;20198;-69
2023/10/28 09:42:43;;;;;;;4.33;1.40;;;16.50;99.90;;;;;;4996075;28;20218;-69
2023/10/28 09:45:10;;;;;;;4.47;1.03;;;16.60;99.90;;;;;;4996287;28;20550;-70
2023/10/28 09:47:42;;;;;;;6.27;1.10;;;16.60;99.90;;;;;;4996250;28;20658;-73
2023/10/28 09:50:15;;;;;;;3.67;0.97;;;16.60;99.90;;;;;;4996156;28;20273;-71
2023/10/28 09:52:48;;;;;;;5.03;1.90;;;16.60;99.90;;;;;;4996128;28;20533;-71
2023/10/28 09:55:20;;;;;;;7.30;1.70;;;16.40;99.90;;;;;;4996490;28;20182;-72
2023/10/28 09:57:50;;;;;;;4.20;1.37;;;16.40;99.90;;;;;;4995978;28;20269;-69
2023/10/28 10:00:24;;;;;;;5.33;1.20;;;16.30;99.90;;;;;;4995920;28;20662;-71
2023/10/28 10:03:06;;;;;;;4.37;1.30;;;16.10;99.90;;;;;;4995652;28;20289;-71
2023/10/28 10:05:48;;;;;;;5.73;1.27;;;16.10;99.90;;;;;;4995462;28;20212;-73
2023/10/28 10:08:22;;;;;;;2.90;1.00;;;16.00;99.90;;;;;;4995370;28;20277;-72
2023/10/28 10:10:51;;;;;;;4.17;1.00;;;15.90;99.90;;;;;;4995330;28;20221;-70
2023/10/28 10:13:19;;;;;;;2.37;1.17;;;15.90;99.90;;;;;;4995514;28;20274;-72
2023/10/28 10:15:49;;;;;;;3.43;1.00;;;15.90;99.90;;;;;;4995118;28;20218;-71
2023/10/28 10:18:39;;;;;;;6.30;1.23;;;15.80;99.90;;;;;;4994777;28;20194;-73
2023/10/28 10:21:18;;;;;;;2.60;1.00;;;15.80;99.90;;;;;;4995608;28;20190;-72
2023/10/28 10:23:54;;;;;;;3.27;1.10;;;15.80;99.90;;;;;;4996048;28;20214;-73
2023/10/28 10:26:34;;;;;;;3.10;1.13;;;15.80;99.90;;;;;;4995154;28;20188;-71
2023/10/28 10:29:05;;;;;;;3.30;0.90;;;15.70;99.90;;;;;;4995099;28;20193;-71
2023/10/28 10:31:37;;;;;;;2.30;1.10;;;15.70;99.90;;;;;;4993827;28;20209;-69
2023/10/28 10:34:09;;;;;;;2.93;0.97;;;15.60;99.90;;;;;;4995995;28;20655;-70
2023/10/28 10:36:43;;;;;;;5.90;1.40;;;15.50;99.90;;;;;;4995546;28;20183;-71
2023/10/28 10:39:18;;;;;;;5.63;1.10;;;15.50;99.90;;;;;;4995006;28;20697;-72
2023/10/28 10:41:56;;;;;;;2.30;1.37;;;15.40;99.90;;;;;;4994907;28;20279;-70
2023/10/28 10:44:39;;;;;;;3.17;1.17;;;15.40;99.90;;;;;;4995140;28;20718;-71
2023/10/28 10:47:12;;;;;;;2.07;1.10;;;15.30;99.90;;;;;;4995289;28;20212;-71
2023/10/28 10:49:40;;;;;;;4.77;1.37;;;15.30;99.90;;;;;;4994907;28;20190;-71
2023/10/28 10:52:08;;;;;;;3.07;1.17;;;15.20;99.90;;;;;;4994939;28;20187;-71
2023/10/28 10:54:39;;;;;;;5.30;1.20;;;15.20;99.90;;;;;;4995186;28;20525;-71
2023/10/28 10:57:08;;;;;;;2.17;1.10;;;15.20;99.90;;;;;;4993844;28;20653;-72
2023/10/28 10:59:38;;;;;;;4.80;1.13;;;15.20;99.90;;;;;;4994121;28;20233;-71
2023/10/28 11:02:06;;;;;;;4.53;1.00;;;15.20;99.90;;;;;;4994279;28;20238;-73
2023/10/28 11:04:36;;;;;;;4.10;1.10;;;15.30;99.90;;;;;;4993721;28;20200;-75
2023/10/28 11:07:04;;;;;;;3.40;1.20;;;15.30;99.90;;;;;;4994692;28;20253;-74
2023/10/28 11:09:35;;;;;;;6.20;1.50;;;15.30;99.90;;;;;;4994311;28;20194;-73
2023/10/28 11:12:02;;;;;;;3.47;1.13;;;15.20;99.90;;;;;;4994369;28;20233;-72
2023/10/28 11:14:30;;;;;;;3.77;1.33;;;15.20;99.90;;;;;;4994043;28;20214;-72
2023/10/28 11:16:57;;;;;;;6.00;1.90;;;15.20;99.90;;;;;;4994046;28;20185;-72
2023/10/28 11:19:25;;;;;;;2.80;1.30;;;15.20;99.90;;;;;;4994149;28;20174;-74
2023/10/28 11:21:54;;;;;;;6.13;1.53;;;15.10;99.90;;;;;;4994637;28;20196;-73
2023/10/28 11:24:24;;;;;;;4.97;1.80;;;15.10;99.90;;;;;;4994534;28;20204;-73
2023/10/28 11:26:51;;;;;;;7.30;1.93;;;15.10;99.90;;;;;;4994921;28;20599;-72
2023/10/28 11:29:19;;;;;;;3.90;1.60;;;15.10;99.90;;;;;;4993839;28;20543;-74
2023/10/28 11:31:47;;;;;;;5.40;1.23;;;15.10;99.90;;;;;;4994255;28;20227;-73
2023/10/28 11:34:15;;;;;;;5.03;1.43;;;15.00;99.90;;;;;;4995290;28;20581;-74
2023/10/28 11:36:42;;;;;;;3.43;1.37;;;14.90;99.90;;;;;;4994575;28;20221;-72
2023/10/28 11:39:13;;;;;;;3.87;1.17;;;14.80;99.90;;;;;;4994129;28;20183;-75
2023/10/28 11:41:47;;;;;;;2.83;1.50;;;14.70;99.90;;;;;;4994400;28;20229;-74
2023/10/28 11:44:14;;;;;;;4.63;1.63;;;14.60;99.90;;;;;;4993795;28;20179;-75
2023/10/28 11:46:41;;;;;;;4.67;1.40;;;14.50;99.90;;;;;;4994242;28;20666;-71
2023/10/28 11:49:09;;;;;;;3.80;1.57;;;14.50;99.90;;;;;;4994441;28;20244;-72
2023/10/28 11:51:36;;;;;;;5.30;1.57;;;14.40;99.90;;;;;;4994365;28;20189;-72
2023/10/28 11:54:04;;;;;;;1.87;1.10;;;14.40;99.90;;;;;;4994659;28;20178;-74
2023/10/28 11:56:34;;;;;;;4.00;1.57;;;14.30;99.90;;;;;;4994207;28;20542;-74
2023/10/28 11:59:02;;;;;;;3.53;1.43;;;14.20;99.90;;;;;;4994101;28;20611;-74
2023/10/28 12:01:32;;;;;;;3.03;1.17;;;14.20;99.90;;;;;;4994301;28;20186;-75
2023/10/28 12:03:59;;;;;;;3.97;1.50;;;14.10;99.90;;;;;;4993815;28;20223;-74
2023/10/28 12:06:26;;;;;;;4.40;1.60;;;14.10;99.90;;;;;;4994207;28;20186;-75
2023/10/28 12:08:57;;;;;;;4.17;1.47;;;14.10;99.90;;;;;;4993619;28;20197;-72
2023/10/28 12:11:25;;;;;;;4.80;1.80;;;14.00;99.90;;;;;;4994650;28;20184;-73
2023/10/28 12:13:52;;;;;;;3.53;1.80;;;14.00;99.90;;;;;;4994120;28;20173;-73
2023/10/28 12:16:20;;;;;;;5.37;2.30;;;13.90;99.90;;;;;;4994040;28;20721;-73
2023/10/28 12:18:47;;;;;;;5.73;2.70;;;13.90;99.90;;;;;;4993931;28;20252;-72
2023/10/28 12:21:17;;;;;;;4.43;2.43;;;14.00;99.90;;;;;;4994162;28;20182;-73
2023/10/28 12:23:45;;;;;;;4.03;2.53;;;14.00;99.90;;;;;;4992525;28;20222;-74
2023/10/28 12:26:13;;;;;;;4.13;2.43;;;13.90;99.90;;;;;;4994108;28;20640;-73
2023/10/28 12:28:41;;;;;;;4.73;2.60;;;13.90;99.90;;;;;;4993798;28;20186;-74
2023/10/28 12:31:09;;;;;;;9.50;2.80;;;13.90;99.90;;;;;;4996904;28;20217;-71
2023/10/28 12:33:36;;;;;;;5.30;2.70;;;13.80;99.90;;;;;;4997176;28;20284;-72
2023/10/28 12:36:06;;;;;;;6.90;3.20;;;13.70;99.90;;;;;;4997256;28;20224;-71
2023/10/28 12:38:34;;;;;;;5.90;2.70;;;13.70;99.90;;;;;;4996708;28;20191;-72
2023/10/28 12:41:02;;;;;;;5.97;2.97;;;13.60;99.90;;;;;;4997115;28;20648;-71
2023/10/28 12:43:29;;;;;;;5.73;3.20;;;13.60;99.90;;;;;;4997645;28;20624;-73
2023/10/28 12:45:57;;;;;;;9.17;3.07;;;13.70;99.90;;;;;;4997908;28;20174;-71
2023/10/28 12:48:24;;;;;;;6.10;3.27;;;13.60;99.90;;;;;;4997664;28;20268;-71
2023/10/28 12:50:51;;;;;;;4.70;2.80;;;13.60;99.90;;;;;;4998029;28;20178;-71
2023/10/28 12:53:18;;;;;;;6.23;3.27;;;13.60;99.90;;;;;;4998309;28;20178;-72
2023/10/28 12:55:46;;;;;;;7.17;3.33;;;13.50;99.90;;;;;;4998393;28;20591;-73
2023/10/28 12:58:13;;;;;;;6.23;3.63;;;13.50;99.90;;;;;;4997205;28;20269;-69
2023/10/28 13:00:40;;;;;;;5.03;3.17;;;13.40;99.90;;;;;;4998152;28;20189;-71
2023/10/28 13:03:08;;;;;;;5.30;2.97;;;13.40;99.90;;;;;;4997601;28;20244;-72
2023/10/28 13:05:35;;;;;;;6.37;3.00;;;13.40;99.90;;;;;;4997570;28;20249;-72
2023/10/28 13:08:03;;;;;;;6.03;3.07;;;13.40;99.90;;;;;;4996602;28;20182;-72
2023/10/28 13:10:30;;;;;;;4.67;3.13;;;13.40;99.90;;;;;;4996904;28;20713;-70
2023/10/28 13:12:58;;;;;;;6.57;2.70;;;13.40;99.90;;;;;;4996934;28;20191;-71
2023/10/28 13:15:27;;;;;;;8.33;3.20;;;13.40;99.90;;;;;;4996391;28;20222;-72
2023/10/28 13:17:56;;;;;;;7.80;3.17;;;13.40;99.90;;;;;;4996514;28;20182;-72
2023/10/28 13:20:24;;;;;;;7.03;2.97;;;13.30;99.90;;;;;;4996596;28;20183;-70
2023/10/28 13:22:52;;;;;;;3.90;2.70;;;13.30;99.90;;;;;;4996222;28;20213;-72
2023/10/28 13:25:21;;;;;;;7.97;2.33;;;13.30;99.90;;;;;;4995751;28;20203;-72